createdAt,value
2018-12-21T00:00:58.241Z,101920.64
2018-12-21T00:02:33.170Z,101917.87
2018-12-21T00:04:06.949Z,101921.66
2018-12-21T00:05:40.955Z,101920.41
2018-12-21T00:07:14.886Z,101911.87
2018-12-21T00:08:48.881Z,101913.75
2018-12-21T00:10:23.674Z,101907.16
2018-12-21T00:11:58.022Z,101900.59
2018-12-21T00:13:32.020Z,101911.95
2018-12-21T00:15:05.901Z,101911.17
2018-12-21T00:16:40.741Z,101906.31
2018-12-21T00:18:14.849Z,101914.13
2018-12-21T00:19:50.627Z,101915.97
2018-12-21T00:21:24.603Z,101910.69
2018-12-21T00:22:58.648Z,101917.30
2018-12-21T00:24:33.326Z,101908.01
2018-12-21T00:26:07.306Z,101907.70
2018-12-21T00:27:42.153Z,101904.48
2018-12-21T00:29:16.163Z,101902.38
2018-12-21T00:30:48.846Z,101903.63
2018-12-21T00:32:28.267Z,101908.58
2018-12-21T00:34:08.112Z,101899.55
2018-12-21T00:35:47.341Z,101899.25
2018-12-21T00:37:27.187Z,101901.92
2018-12-21T00:39:06.721Z,101902.77
2018-12-21T00:40:45.635Z,101904.68
2018-12-21T00:42:23.627Z,101901.51
2018-12-21T00:44:07.791Z,101902.70
2018-12-21T00:45:41.682Z,101909.81
2018-12-21T00:47:20.491Z,101904.61
2018-12-21T00:48:55.524Z,101911.95
2018-12-21T00:50:30.345Z,101912.64
2018-12-21T00:52:03.972Z,101910.27
2018-12-21T00:53:37.802Z,101911.68
2018-12-21T00:55:11.963Z,101906.46
2018-12-21T00:56:46.871Z,101907.32
2018-12-21T00:58:22.848Z,101911.55
2018-12-21T00:59:56.593Z,101904.03
2018-12-21T01:01:30.518Z,101906.79
2018-12-21T01:03:06.762Z,101904.11
2018-12-21T01:04:39.773Z,101895.17
2018-12-21T01:06:14.626Z,101895.56
2018-12-21T01:07:49.515Z,101903.68
2018-12-21T01:09:24.349Z,101901.07
2018-12-21T01:10:58.137Z,101905.92
2018-12-21T01:12:32.974Z,101900.32
2018-12-21T01:14:06.717Z,101898.60
2018-12-21T01:15:40.480Z,101901.22
2018-12-21T01:17:14.487Z,101897.61
2018-12-21T01:18:50.413Z,101895.93
2018-12-21T01:20:25.553Z,101897.70
2018-12-21T01:22:01.091Z,101899.94
2018-12-21T01:23:35.063Z,101895.63
2018-12-21T01:25:08.823Z,101896.86
2018-12-21T01:26:43.007Z,101889.18
2018-12-21T01:28:17.720Z,101890.52
2018-12-21T01:29:52.440Z,101883.54
2018-12-21T01:31:26.946Z,101885.17
2018-12-21T01:33:00.666Z,101884.17
2018-12-21T01:34:35.447Z,101885.87
2018-12-21T01:36:09.529Z,101885.17
2018-12-21T01:37:43.553Z,101887.20
2018-12-21T01:39:17.901Z,101880.58
2018-12-21T01:40:51.655Z,101874.33
2018-12-21T01:42:25.707Z,101877.49
2018-12-21T01:43:59.793Z,101867.20
2018-12-21T01:45:33.821Z,101874.03
2018-12-21T01:47:07.797Z,101873.83
2018-12-21T01:48:41.917Z,101868.33
2018-12-21T01:50:15.800Z,101869.92
2018-12-21T01:51:49.668Z,101873.23
2018-12-21T01:53:23.533Z,101873.09
2018-12-21T01:54:58.378Z,101868.44
2018-12-21T01:56:32.469Z,101865.77
2018-12-21T01:58:06.749Z,101869.52
2018-12-21T01:59:40.963Z,101865.30
2018-12-21T02:01:14.744Z,101868.18
2018-12-21T02:02:48.394Z,101863.67
2018-12-21T02:04:22.173Z,101860.50
2018-12-21T02:05:56.202Z,101861.00
2018-12-21T02:07:29.996Z,101870.91
2018-12-21T02:09:04.105Z,101857.78
2018-12-21T02:10:38.829Z,101864.32
2018-12-21T02:12:12.976Z,101861.00
2018-12-21T02:13:46.903Z,101863.68
2018-12-21T02:15:21.853Z,101865.37
2018-12-21T02:16:56.865Z,101864.52
2018-12-21T02:18:31.295Z,101860.72
2018-12-21T02:20:05.148Z,101856.00
2018-12-21T02:21:39.309Z,101855.02
2018-12-21T02:23:13.256Z,101855.86
2018-12-21T02:24:47.232Z,101849.88
2018-12-21T02:26:21.189Z,101846.30
2018-12-21T02:27:55.222Z,101850.95
2018-12-21T02:29:30.369Z,101843.97
2018-12-21T02:31:04.152Z,101851.59
2018-12-21T02:32:38.058Z,101843.56
2018-12-21T02:34:12.673Z,101844.02
2018-12-21T02:35:46.686Z,101844.66
2018-12-21T02:37:21.561Z,101845.95
2018-12-21T02:38:55.584Z,101846.94
2018-12-21T02:40:31.331Z,101842.98
2018-12-21T02:42:06.301Z,101849.11
2018-12-21T02:43:41.313Z,101841.58
2018-12-21T02:45:15.387Z,101837.27
2018-12-21T02:46:49.344Z,101840.94
2018-12-21T02:48:23.221Z,101839.70
2018-12-21T02:49:57.234Z,101842.86
2018-12-21T02:51:31.115Z,101834.41
2018-12-21T02:53:05.419Z,101837.72
2018-12-21T02:54:40.226Z,101841.67
2018-12-21T02:56:14.172Z,101835.38
2018-12-21T02:57:48.181Z,101837.66
2018-12-21T02:59:22.130Z,101837.22
2018-12-21T03:00:55.068Z,101833.50
2018-12-21T03:02:29.282Z,101831.09
2018-12-21T03:04:03.293Z,101830.09
2018-12-21T03:05:37.564Z,101825.53
2018-12-21T03:07:11.327Z,101824.26
2018-12-21T03:08:45.159Z,101821.59
2018-12-21T03:10:19.091Z,101813.86
2018-12-21T03:11:52.975Z,101817.22
2018-12-21T03:13:26.888Z,101816.87
2018-12-21T03:15:00.806Z,101816.67
2018-12-21T03:16:34.806Z,101803.02
2018-12-21T03:18:08.885Z,101806.73
2018-12-21T03:19:43.008Z,101811.53
2018-12-21T03:21:16.871Z,101799.79
2018-12-21T03:22:51.843Z,101807.02
2018-12-21T03:24:26.735Z,101801.88
2018-12-21T03:26:00.957Z,101803.16
2018-12-21T03:27:34.910Z,101803.02
2018-12-21T03:29:08.692Z,101794.91
2018-12-21T03:30:42.991Z,101798.86
2018-12-21T03:32:17.913Z,101801.59
2018-12-21T03:33:52.000Z,101801.88
2018-12-21T03:35:26.851Z,101803.66
2018-12-21T03:37:01.581Z,101803.86
2018-12-21T03:38:35.474Z,101802.08
2018-12-21T03:40:09.481Z,101798.91
2018-12-21T03:41:44.399Z,101800.63
2018-12-21T03:43:18.171Z,101790.34
2018-12-21T03:44:52.077Z,101797.67
2018-12-21T03:46:25.991Z,101800.48
2018-12-21T03:48:00.008Z,101795.89
2018-12-21T03:49:33.890Z,101793.11
2018-12-21T03:51:08.946Z,101794.15
2018-12-21T03:52:43.748Z,101793.51
2018-12-21T03:54:17.352Z,101786.88
2018-12-21T03:55:51.157Z,101788.02
2018-12-21T03:57:24.898Z,101781.69
2018-12-21T03:58:58.761Z,101781.63
2018-12-21T04:00:32.826Z,101782.33
2018-12-21T04:02:06.604Z,101782.03
2018-12-21T04:03:40.469Z,101777.47
2018-12-21T04:05:14.471Z,101777.67
2018-12-21T04:06:49.357Z,101775.84
2018-12-21T04:08:23.067Z,101773.52
2018-12-21T04:09:57.050Z,101772.18
2018-12-21T04:11:31.000Z,101764.31
2018-12-21T04:13:04.906Z,101768.75
2018-12-21T04:14:38.937Z,101767.97
2018-12-21T04:16:12.903Z,101767.97
2018-12-21T04:17:46.873Z,101763.67
2018-12-21T04:19:21.099Z,101763.91
2018-12-21T04:20:56.105Z,101762.83
2018-12-21T04:22:34.276Z,101764.74
2018-12-21T04:24:05.119Z,101762.77
2018-12-21T04:25:39.291Z,101761.48
2018-12-21T04:27:13.600Z,101758.32
2018-12-21T04:28:48.334Z,101761.23
2018-12-21T04:30:23.376Z,101756.14
2018-12-21T04:31:57.353Z,101749.55
2018-12-21T04:33:31.370Z,101752.63
2018-12-21T04:35:05.304Z,101746.73
2018-12-21T04:36:40.231Z,101747.72
2018-12-21T04:38:14.189Z,101744.45
2018-12-21T04:39:48.108Z,101740.54
2018-12-21T04:41:21.802Z,101747.42
2018-12-21T04:42:56.525Z,101738.07
2018-12-21T04:44:30.640Z,101741.38
2018-12-21T04:46:06.506Z,101736.73
2018-12-21T04:47:41.446Z,101735.25
2018-12-21T04:49:16.334Z,101733.22
2018-12-21T04:50:50.340Z,101736.58
2018-12-21T04:52:24.249Z,101736.23
2018-12-21T04:53:58.551Z,101729.06
2018-12-21T04:55:33.069Z,101732.31
2018-12-21T04:57:07.175Z,101730.34
2018-12-21T04:58:41.241Z,101730.89
2018-12-21T05:00:15.089Z,101726.68
2018-12-21T05:01:49.168Z,101727.87
2018-12-21T05:03:23.253Z,101725.90
2018-12-21T05:04:57.195Z,101729.41
2018-12-21T05:06:31.035Z,101724.36
2018-12-21T05:08:04.935Z,101729.62
2018-12-21T05:09:38.675Z,101721.11
2018-12-21T05:11:12.507Z,101726.39
2018-12-21T05:12:47.428Z,101729.47
2018-12-21T05:14:21.402Z,101723.58
2018-12-21T05:15:55.526Z,101721.25
2018-12-21T05:17:29.843Z,101719.52
2018-12-21T05:19:03.950Z,101718.93
2018-12-21T05:20:37.859Z,101715.91
2018-12-21T05:22:11.868Z,101715.41
2018-12-21T05:23:45.652Z,101724.02
2018-12-21T05:25:19.551Z,101713.88
2018-12-21T05:26:52.717Z,101719.91
2018-12-21T05:28:25.728Z,101716.55
2018-12-21T05:29:59.840Z,101714.16
2018-12-21T05:31:34.265Z,101722.03
2018-12-21T05:33:08.060Z,101718.58
2018-12-21T05:34:42.159Z,101715.06
2018-12-21T05:36:16.984Z,101719.51
2018-12-21T05:37:51.191Z,101716.69
2018-12-21T05:39:25.118Z,101715.06
2018-12-21T05:40:58.921Z,101708.17
2018-12-21T05:42:32.895Z,101711.64
2018-12-21T05:44:06.884Z,101704.52
2018-12-21T05:45:40.888Z,101707.84
2018-12-21T05:47:14.990Z,101704.67
2018-12-21T05:48:48.904Z,101704.17
2018-12-21T05:50:24.035Z,101703.83
2018-12-21T05:51:57.920Z,101704.58
2018-12-21T05:53:32.879Z,101701.15
2018-12-21T05:55:06.881Z,101698.53
2018-12-21T05:56:41.578Z,101700.02
2018-12-21T05:58:15.454Z,101701.14
2018-12-21T05:59:50.200Z,101699.60
2018-12-21T06:01:24.336Z,101704.23
2018-12-21T06:02:58.334Z,101698.05
2018-12-21T06:04:32.452Z,101698.52
2018-12-21T06:06:06.742Z,101702.61
2018-12-21T06:07:40.568Z,101699.59
2018-12-21T06:09:14.467Z,101696.08
2018-12-21T06:10:48.460Z,101696.35
2018-12-21T06:12:22.339Z,101697.91
2018-12-21T06:13:56.302Z,101695.63
2018-12-21T06:15:30.485Z,101691.83
2018-12-21T06:17:04.480Z,101692.21
2018-12-21T06:18:39.205Z,101691.56
2018-12-21T06:20:13.511Z,101688.61
2018-12-21T06:21:48.442Z,101687.77
2018-12-21T06:23:23.282Z,101685.53
2018-12-21T06:24:57.580Z,101681.78
2018-12-21T06:26:32.509Z,101681.73
2018-12-21T06:28:06.305Z,101689.45
2018-12-21T06:29:40.244Z,101685.15
2018-12-21T06:31:14.304Z,101686.27
2018-12-21T06:32:48.011Z,101686.91
2018-12-21T06:34:22.439Z,101688.25
2018-12-21T06:35:57.370Z,101692.70
2018-12-21T06:37:31.252Z,101683.12
2018-12-21T06:39:05.564Z,101677.14
2018-12-21T06:40:39.883Z,101676.38
2018-12-21T06:42:14.701Z,101673.71
2018-12-21T06:43:48.636Z,101675.31
2018-12-21T06:45:23.425Z,101677.78
2018-12-21T06:46:57.439Z,101675.69
2018-12-21T06:48:31.443Z,101679.91
2018-12-21T06:50:06.650Z,101678.08
2018-12-21T06:51:41.474Z,101682.50
2018-12-21T06:53:18.020Z,101679.77
2018-12-21T06:54:48.573Z,101678.44
2018-12-21T06:56:22.458Z,101678.93
2018-12-21T06:57:56.287Z,101675.82
2018-12-21T06:59:31.311Z,101678.84
2018-12-21T07:01:05.792Z,101681.80
2018-12-21T07:02:40.636Z,101679.19
2018-12-21T07:04:14.656Z,101683.58
2018-12-21T07:05:49.288Z,101683.00
2018-12-21T07:07:23.191Z,101678.78
2018-12-21T07:08:57.066Z,101679.98
2018-12-21T07:10:32.019Z,101676.32
2018-12-21T07:12:05.915Z,101680.47
2018-12-21T07:13:39.956Z,101678.64
2018-12-21T07:15:14.325Z,101679.13
2018-12-21T07:16:48.361Z,101684.83
2018-12-21T07:18:22.555Z,101676.38
2018-12-21T07:19:56.781Z,101672.61
2018-12-21T07:21:30.988Z,101668.95
2018-12-21T07:23:05.083Z,101671.03
2018-12-21T07:24:38.881Z,101669.83
2018-12-21T07:26:12.737Z,101670.95
2018-12-21T07:27:46.761Z,101671.95
2018-12-21T07:29:20.777Z,101672.88
2018-12-21T07:30:54.444Z,101670.47
2018-12-21T07:32:29.298Z,101670.27
2018-12-21T07:34:04.229Z,101673.94
2018-12-21T07:35:39.149Z,101668.09
2018-12-21T07:37:13.367Z,101663.74
2018-12-21T07:38:48.188Z,101665.57
2018-12-21T07:40:23.114Z,101669.44
2018-12-21T07:41:57.232Z,101658.74
2018-12-21T07:43:32.055Z,101660.63
2018-12-21T07:45:05.943Z,101660.72
2018-12-21T07:46:39.999Z,101660.42
2018-12-21T07:48:14.977Z,101659.23
2018-12-21T07:49:48.759Z,101653.39
2018-12-21T07:51:22.682Z,101665.13
2018-12-21T07:52:56.587Z,101656.41
2018-12-21T07:54:30.712Z,101654.53
2018-12-21T07:56:05.622Z,101660.98
2018-12-21T07:57:39.826Z,101652.19
2018-12-21T07:59:14.753Z,101652.97
2018-12-21T08:00:49.470Z,101655.80
2018-12-21T08:02:23.346Z,101654.74
2018-12-21T08:04:27.568Z,101655.23
2018-12-21T08:06:01.619Z,101646.58
2018-12-21T08:07:37.624Z,101648.31
2018-12-21T08:09:11.403Z,101638.83
2018-12-21T08:10:45.452Z,101640.75
2018-12-21T08:12:19.560Z,101641.09
2018-12-21T08:13:53.485Z,101637.72
2018-12-21T08:15:28.398Z,101639.41
2018-12-21T08:17:02.494Z,101638.56
2018-12-21T08:18:36.430Z,101637.58
2018-12-21T08:20:10.374Z,101638.56
2018-12-21T08:21:44.098Z,101634.77
2018-12-21T08:23:18.014Z,101639.91
2018-12-21T08:24:52.620Z,101633.08
2018-12-21T08:26:26.930Z,101636.16
2018-12-21T08:28:00.729Z,101632.73
2018-12-21T08:29:34.426Z,101632.52
2018-12-21T08:31:08.331Z,101632.66
2018-12-21T08:32:42.060Z,101631.38
2018-12-21T08:34:16.296Z,101623.80
2018-12-21T08:35:51.256Z,101619.52
2018-12-21T08:37:25.434Z,101627.92
2018-12-21T08:38:59.198Z,101621.83
2018-12-21T08:40:34.352Z,101624.34
2018-12-21T08:42:08.188Z,101627.80
2018-12-21T08:43:42.123Z,101625.86
2018-12-21T08:45:16.933Z,101627.28
2018-12-21T08:46:50.937Z,101626.98
2018-12-21T08:48:25.155Z,101628.55
2018-12-21T08:49:59.353Z,101632.92
2018-12-21T08:51:33.473Z,101629.18
2018-12-21T08:53:07.164Z,101631.80
2018-12-21T08:54:41.170Z,101626.11
2018-12-21T08:56:16.104Z,101633.75
2018-12-21T08:57:50.896Z,101634.67
2018-12-21T08:59:25.040Z,101631.31
2018-12-21T09:00:59.741Z,101627.84
2018-12-21T09:02:34.465Z,101631.59
2018-12-21T09:04:08.595Z,101631.94
2018-12-21T09:05:43.192Z,101624.33
2018-12-21T09:07:17.308Z,101626.24
2018-12-21T09:08:52.145Z,101623.56
2018-12-21T09:10:27.241Z,101623.98
2018-12-21T09:12:01.030Z,101624.75
2018-12-21T09:13:36.199Z,101619.80
2018-12-21T09:15:10.289Z,101622.75
2018-12-21T09:16:45.216Z,101615.22
2018-12-21T09:18:20.447Z,101621.48
2018-12-21T09:19:55.375Z,101615.53
2018-12-21T09:21:30.227Z,101612.32
2018-12-21T09:23:04.522Z,101608.81
2018-12-21T09:24:39.443Z,101610.80
2018-12-21T09:26:13.161Z,101610.19
2018-12-21T09:28:33.628Z,101604.72
2018-12-21T09:29:37.944Z,101600.71
2018-12-21T09:30:42.338Z,101600.37
2018-12-21T09:31:46.700Z,101595.52
2018-12-21T09:32:51.033Z,101590.97
2018-12-21T09:33:55.470Z,101593.30
2018-12-21T09:34:59.790Z,101589.05
2018-12-21T09:36:04.194Z,101587.83
2018-12-21T09:37:08.664Z,101593.44
2018-12-21T09:38:14.286Z,101590.92
2018-12-21T09:39:25.209Z,101583.13
2018-12-21T09:40:29.748Z,101587.13
2018-12-21T09:41:34.305Z,101578.64
2018-12-21T09:42:38.723Z,101585.39
2018-12-21T09:43:43.216Z,101580.92
2018-12-21T09:44:52.546Z,101580.34
2018-12-21T09:45:52.326Z,101575.00
2018-12-21T09:46:56.602Z,101577.62
2018-12-21T09:48:01.019Z,101580.98
2018-12-21T09:49:05.440Z,101574.66
2018-12-21T09:50:11.080Z,101574.02
2018-12-21T09:51:15.576Z,101574.87
2018-12-21T09:52:20.022Z,101570.37
2018-12-21T09:53:24.447Z,101571.29
2018-12-21T09:54:28.905Z,101568.27
2018-12-21T09:55:33.312Z,101567.05
2018-12-21T09:56:37.762Z,101567.92
2018-12-21T09:57:42.149Z,101559.47
2018-12-21T09:58:46.446Z,101567.33
2018-12-21T09:59:50.836Z,101559.42
2018-12-21T10:00:55.236Z,101562.09
2018-12-21T10:01:59.693Z,101557.44
2018-12-21T10:03:04.114Z,101556.30
2018-12-21T10:04:08.515Z,101552.98
2018-12-21T10:05:15.231Z,101555.04
2018-12-21T10:06:19.649Z,101551.72
2018-12-21T10:07:27.652Z,101554.27
2018-12-21T10:08:28.534Z,101553.92
2018-12-21T10:09:32.993Z,101553.28
2018-12-21T10:10:37.305Z,101546.47
2018-12-21T10:11:41.780Z,101545.28
2018-12-21T10:12:46.002Z,101546.97
2018-12-21T10:13:50.355Z,101546.20
2018-12-21T10:14:54.638Z,101544.52
2018-12-21T10:15:59.042Z,101544.81
2018-12-21T10:17:03.445Z,101545.70
2018-12-21T10:18:07.528Z,101543.24
2018-12-21T10:19:11.580Z,101543.48
2018-12-21T10:20:19.937Z,101542.84
2018-12-21T10:21:20.046Z,101546.01
2018-12-21T10:22:24.258Z,101540.17
2018-12-21T10:23:28.332Z,101546.21
2018-12-21T10:24:32.603Z,101539.19
2018-12-21T10:25:36.722Z,101542.00
2018-12-21T10:26:40.914Z,101534.34
2018-12-21T10:27:45.400Z,101538.64
2018-12-21T10:28:49.794Z,101531.73
2018-12-21T10:29:54.335Z,101529.27
2018-12-21T10:30:58.849Z,101530.84
2018-12-21T10:32:03.230Z,101532.33
2018-12-21T10:33:07.551Z,101528.31
2018-12-21T10:34:12.101Z,101526.48
2018-12-21T10:35:16.508Z,101527.33
2018-12-21T10:36:20.884Z,101523.44
2018-12-21T10:37:25.198Z,101530.91
2018-12-21T10:38:29.501Z,101524.64
2018-12-21T10:39:33.909Z,101524.64
2018-12-21T10:40:38.291Z,101522.75
2018-12-21T10:41:42.575Z,101518.84
2018-12-21T10:42:47.108Z,101520.52
2018-12-21T10:43:51.489Z,101526.41
2018-12-21T10:44:55.725Z,101521.34
2018-12-21T10:46:03.902Z,101521.27
2018-12-21T10:47:09.170Z,101519.23
2018-12-21T10:48:13.375Z,101514.89
2018-12-21T10:49:17.448Z,101521.91
2018-12-21T10:50:21.519Z,101513.63
2018-12-21T10:51:25.632Z,101515.23
2018-12-21T10:52:29.891Z,101520.08
2018-12-21T10:53:34.011Z,101510.74
2018-12-21T10:54:38.085Z,101511.17
2018-12-21T10:55:42.210Z,101515.58
2018-12-21T10:56:46.289Z,101515.31
2018-12-21T10:57:50.462Z,101512.99
2018-12-21T10:58:54.596Z,101512.16
2018-12-21T10:59:58.626Z,101508.84
2018-12-21T11:01:02.813Z,101513.19
2018-12-21T11:02:06.968Z,101507.01
2018-12-21T11:03:11.026Z,101501.60
2018-12-21T11:04:15.126Z,101505.11
2018-12-21T11:05:19.501Z,101501.38
2018-12-21T11:06:23.929Z,101502.62
2018-12-21T11:07:31.147Z,101495.72
2018-12-21T11:08:35.228Z,101499.16
2018-12-21T11:09:39.755Z,101496.68
2018-12-21T11:10:45.888Z,101495.15
2018-12-21T11:11:48.493Z,101494.31
2018-12-21T11:12:52.911Z,101496.26
2018-12-21T11:13:57.297Z,101488.47
2018-12-21T11:15:01.508Z,101495.34
2018-12-21T11:16:05.583Z,101483.81
2018-12-21T11:17:09.647Z,101481.83
2018-12-21T11:18:13.845Z,101482.62
2018-12-21T11:19:17.899Z,101486.53
2018-12-21T11:20:22.024Z,101477.55
2018-12-21T11:21:26.166Z,101476.22
2018-12-21T11:22:30.421Z,101481.69
2018-12-21T11:23:34.581Z,101469.12
2018-12-21T11:24:38.620Z,101470.80
2018-12-21T11:25:42.678Z,101470.27
2018-12-21T11:26:46.829Z,101474.20
2018-12-21T11:27:50.901Z,101468.44
2018-12-21T11:28:55.023Z,101465.08
2018-12-21T11:29:59.140Z,101468.59
2018-12-21T11:31:03.399Z,101468.59
2018-12-21T11:32:07.860Z,101474.23
2018-12-21T11:33:12.194Z,101472.55
2018-12-21T11:34:16.643Z,101468.88
2018-12-21T11:35:20.861Z,101471.55
2018-12-21T11:36:25.136Z,101471.90
2018-12-21T11:37:29.222Z,101466.98
2018-12-21T11:38:33.406Z,101461.17
2018-12-21T11:39:37.775Z,101458.55
2018-12-21T11:40:41.973Z,101468.02
2018-12-21T11:41:48.777Z,101466.33
2018-12-21T11:42:53.299Z,101471.45
2018-12-21T11:43:57.493Z,101466.03
2018-12-21T11:45:01.960Z,101470.23
2018-12-21T11:46:06.107Z,101463.31
2018-12-21T11:47:10.347Z,101451.17
2018-12-21T11:48:14.412Z,101454.11
2018-12-21T11:49:18.565Z,101454.37
2018-12-21T11:50:22.993Z,101449.44
2018-12-21T11:51:27.501Z,101451.98
2018-12-21T11:52:32.004Z,101449.03
2018-12-21T11:53:36.519Z,101449.66
2018-12-21T11:54:44.455Z,101447.97
2018-12-21T11:55:44.896Z,101447.97
2018-12-21T11:56:49.001Z,101448.22
2018-12-21T11:57:54.083Z,101440.27
2018-12-21T11:58:59.237Z,101456.21
2018-12-21T12:00:03.378Z,101447.55
2018-12-21T12:01:07.576Z,101450.25
2018-12-21T12:02:19.280Z,101441.73
2018-12-21T12:03:15.908Z,101448.23
2018-12-21T12:04:19.948Z,101450.64
2018-12-21T12:05:24.129Z,101440.27
2018-12-21T12:06:28.275Z,101444.87
2018-12-21T12:07:32.365Z,101437.37
2018-12-21T12:08:36.488Z,101445.80
2018-12-21T12:09:40.612Z,101437.63
2018-12-21T12:10:44.760Z,101434.61
2018-12-21T12:11:48.941Z,101429.66
2018-12-21T12:12:53.003Z,101433.70
2018-12-21T12:13:57.108Z,101431.94
2018-12-21T12:15:01.339Z,101427.73
2018-12-21T12:16:05.618Z,101436.04
2018-12-21T12:17:10.103Z,101431.50
2018-12-21T12:18:14.476Z,101427.23
2018-12-21T12:19:18.879Z,101425.49
2018-12-21T12:20:23.228Z,101427.17
2018-12-21T12:21:27.655Z,101422.82
2018-12-21T12:22:31.934Z,101421.88
2018-12-21T12:23:36.314Z,101422.45
2018-12-21T12:24:40.754Z,101416.34
2018-12-21T12:25:45.167Z,101419.67
2018-12-21T12:26:49.428Z,101417.16
2018-12-21T12:27:53.663Z,101417.05
2018-12-21T12:28:57.713Z,101415.56
2018-12-21T12:30:02.059Z,101418.27
2018-12-21T12:31:06.213Z,101410.81
2018-12-21T12:32:10.502Z,101409.17
2018-12-21T12:33:14.742Z,101411.81
2018-12-21T12:34:20.755Z,101404.62
2018-12-21T12:35:24.820Z,101407.15
2018-12-21T12:36:29.026Z,101404.32
2018-12-21T12:37:34.909Z,101402.14
2018-12-21T12:38:39.271Z,101393.97
2018-12-21T12:39:43.714Z,101402.55
2018-12-21T12:40:48.109Z,101396.78
2018-12-21T12:41:52.543Z,101395.17
2018-12-21T12:42:56.899Z,101396.20
2018-12-21T12:44:01.636Z,101396.89
2018-12-21T12:45:07.089Z,101393.13
2018-12-21T12:46:11.619Z,101399.19
2018-12-21T12:47:16.133Z,101392.09
2018-12-21T12:48:20.778Z,101390.41
2018-12-21T12:49:25.252Z,101392.74
2018-12-21T12:50:30.548Z,101393.63
2018-12-21T12:51:35.232Z,101390.66
2018-12-21T12:52:39.538Z,101389.89
2018-12-21T12:53:43.781Z,101390.27
2018-12-21T12:54:48.045Z,101389.63
2018-12-21T12:55:52.116Z,101391.23
2018-12-21T12:56:56.209Z,101392.30
2018-12-21T12:58:00.513Z,101396.68
2018-12-21T12:59:06.018Z,101399.36
2018-12-21T13:00:12.888Z,101392.06
2018-12-21T13:01:17.239Z,101392.67
2018-12-21T13:02:21.483Z,101388.44
2018-12-21T13:03:25.749Z,101384.86
2018-12-21T13:04:29.858Z,101392.95
2018-12-21T13:05:34.129Z,101389.81
2018-12-21T13:06:38.277Z,101391.00
2018-12-21T13:07:42.742Z,101392.19
2018-12-21T13:08:47.188Z,101385.85
2018-12-21T13:09:51.519Z,101385.09
2018-12-21T13:10:55.947Z,101390.39
2018-12-21T13:12:00.414Z,101384.71
2018-12-21T13:13:04.601Z,101386.39
2018-12-21T13:14:08.952Z,101382.84
2018-12-21T13:15:13.805Z,101377.42
2018-12-21T13:16:17.940Z,101377.73
2018-12-21T13:17:22.175Z,101374.98
2018-12-21T13:18:26.481Z,101381.73
2018-12-21T13:19:30.662Z,101373.08
2018-12-21T13:20:34.968Z,101370.06
2018-12-21T13:21:39.365Z,101380.20
2018-12-21T13:22:43.566Z,101372.43
2018-12-21T13:23:47.754Z,101372.00
2018-12-21T13:24:52.124Z,101381.61
2018-12-21T13:25:56.370Z,101373.94
2018-12-21T13:27:00.506Z,101375.36
2018-12-21T13:28:04.891Z,101375.86
2018-12-21T13:29:09.291Z,101371.31
2018-12-21T13:30:13.619Z,101374.07
2018-12-21T13:31:17.878Z,101384.71
2018-12-21T13:32:22.093Z,101381.43
2018-12-21T13:33:26.213Z,101379.94
2018-12-21T13:34:30.523Z,101381.20
2018-12-21T13:35:34.704Z,101381.20
2018-12-21T13:36:38.954Z,101378.29
2018-12-21T13:37:43.169Z,101373.25
2018-12-21T13:38:47.473Z,101382.26
2018-12-21T13:39:51.534Z,101374.14
2018-12-21T13:40:55.757Z,101373.38
2018-12-21T13:41:59.929Z,101377.39
2018-12-21T13:43:04.033Z,101369.30
2018-12-21T13:44:08.323Z,101365.11
2018-12-21T13:45:12.688Z,101359.84
2018-12-21T13:46:16.884Z,101354.12
2018-12-21T13:47:20.972Z,101358.86
2018-12-21T13:48:25.211Z,101368.50
2018-12-21T13:49:29.332Z,101359.80
2018-12-21T13:50:33.427Z,101361.48
2018-12-21T13:51:37.736Z,101365.64
2018-12-21T13:52:41.897Z,101366.18
2018-12-21T13:53:46.163Z,101370.48
2018-12-21T13:54:50.379Z,101372.31
2018-12-21T13:55:54.526Z,101375.25
2018-12-21T13:56:58.804Z,101370.59
2018-12-21T13:58:03.174Z,101367.35
2018-12-21T13:59:07.412Z,101364.53
2018-12-21T14:00:12.082Z,101375.90
2018-12-21T14:01:16.326Z,101369.37
2018-12-21T14:02:20.498Z,101375.71
2018-12-21T14:03:24.720Z,101377.65
2018-12-21T14:04:28.931Z,101376.39
2018-12-21T14:05:33.230Z,101375.30
2018-12-21T14:06:37.545Z,101373.31
2018-12-21T14:07:42.580Z,101367.59
2018-12-21T14:08:46.747Z,101369.11
2018-12-21T14:09:50.865Z,101371.48
2018-12-21T14:10:54.994Z,101373.38
2018-12-21T14:11:59.106Z,101373.31
2018-12-21T14:13:03.440Z,101374.30
2018-12-21T14:14:07.578Z,101374.98
2018-12-21T14:15:11.804Z,101373.58
2018-12-21T14:16:16.107Z,101372.99
2018-12-21T14:17:20.295Z,101371.20
2018-12-21T14:18:24.697Z,101371.35
2018-12-21T14:19:28.905Z,101374.09
2018-12-21T14:20:33.175Z,101373.59
2018-12-21T14:21:37.288Z,101365.52
2018-12-21T14:22:41.631Z,101368.38
2018-12-21T14:23:45.911Z,101369.56
2018-12-21T14:24:50.143Z,101367.39
2018-12-21T14:25:54.326Z,101367.05
2018-12-21T14:26:58.407Z,101360.71
2018-12-21T14:28:02.540Z,101369.75
2018-12-21T14:29:06.828Z,101359.37
2018-12-21T14:30:11.419Z,101362.05
2018-12-21T14:31:15.693Z,101363.28
2018-12-21T14:32:19.907Z,101359.84
2018-12-21T14:33:24.095Z,101360.11
2018-12-21T14:34:28.402Z,101361.20
2018-12-21T14:35:32.754Z,101355.56
2018-12-21T14:36:36.928Z,101351.81
2018-12-21T14:37:41.419Z,101354.06
2018-12-21T14:38:45.822Z,101358.91
2018-12-21T14:39:50.504Z,101349.93
2018-12-21T14:40:54.904Z,101348.59
2018-12-21T14:41:59.473Z,101349.20
2018-12-21T14:43:03.808Z,101347.16
2018-12-21T14:44:08.159Z,101342.43
2018-12-21T14:45:12.617Z,101342.02
2018-12-21T14:46:16.946Z,101342.09
2018-12-21T14:47:21.204Z,101340.78
2018-12-21T14:48:25.389Z,101342.13
2018-12-21T14:49:29.525Z,101340.38
2018-12-21T14:50:33.740Z,101352.13
2018-12-21T14:51:37.892Z,101348.39
2018-12-21T14:52:42.059Z,101340.98
2018-12-21T14:53:46.233Z,101344.66
2018-12-21T14:54:50.396Z,101342.11
2018-12-21T14:55:54.531Z,101338.25
2018-12-21T14:56:59.043Z,101342.15
2018-12-21T14:58:03.508Z,101341.61
2018-12-21T14:59:08.068Z,101335.47
2018-12-21T15:00:14.213Z,101331.77
2018-12-21T15:01:18.985Z,101335.92
2018-12-21T15:02:24.202Z,101330.28
2018-12-21T15:03:30.266Z,101328.69
2018-12-21T15:04:34.505Z,101332.84
2018-12-21T15:05:38.915Z,101332.65
2018-12-21T15:06:43.777Z,101327.35
2018-12-21T15:07:48.194Z,101324.15
2018-12-21T15:08:53.074Z,101326.25
2018-12-21T15:09:57.622Z,101322.85
2018-12-21T15:11:02.144Z,101323.84
2018-12-21T15:12:07.442Z,101320.22
2018-12-21T15:13:11.841Z,101325.48
2018-12-21T15:14:17.979Z,101319.00
2018-12-21T15:15:22.996Z,101318.73
2018-12-21T15:16:27.953Z,101320.44